• Join FlightAware (Why Join?)
  • Login
  • US Flag 
04:21PM EDT


 

Airport Tracker/Info


-or-


 

Live Flight TrackerFlight Track Log ✈ GJS3672 ✈ 30-Apr-2012 ✈ KORD - KJAX

Flight Track Log - Related Links

Times and Time Zones

All times are in EDT time to prevent confusion due to time zone crossing. See the GJS3672 flight status page for this flight to view local times or setup timezone preferences in your user account.

Time Position Orientation Groundspeed Altitude Reporting Facility
EDT Latitude Longitude Course Direction KTS MPH feet Rate Location/Type
09:17PM 41.9553 -87.8943 183° South  Level FlightAware Approximate
09:18PM 41.8497 -87.8500 294° West  Level FlightAware Approximate
09:19PM 41.8667 -87.9000 168° South 224 258 3,800  Level Chicago TRACON
09:20PM 41.8139 -87.8844 164° South 258 297 5,300 2,160 Climbing Chicago Center
09:21PM 41.7467 -87.8583 163° South 258 297 8,000 2,520 Climbing Chicago Center
09:22PM 41.6711 -87.8267 164° South 274 315 10,400 2,220 Climbing Chicago Center
09:23PM 41.5917 -87.7953 163° South 285 328 12,500 1,980 Climbing Chicago Center
09:24PM 41.5036 -87.7583 166° South 311 358 14,400 1,860 Climbing Chicago Center
09:25PM 41.4092 -87.7275 180° South 332 382 16,300 1,800 Climbing Chicago Center
09:26PM 41.3114 -87.7272 180° South 344 396 18,100 1,740 Climbing Chicago Center
09:27PM 41.2069 -87.7269 175° South 365 420 19,800 1,680 Climbing Chicago Center
09:28PM 41.1047 -87.7158 173° South 370 426 21,500 1,680 Climbing Chicago Center
09:29PM 40.9981 -87.6992 174° South 375 432 23,200 1,680 Climbing Chicago Center
09:30PM 40.8917 -87.6856 174° South 386 444 24,900 1,560 Climbing Chicago Center
09:31PM 40.7850 -87.6717 173° South 391 450 26,400 1,440 Climbing Chicago Center
09:32PM 40.6786 -87.6553 175° South 391 450 27,800 1,260 Climbing Chicago Center
09:33PM 40.5700 -87.6417 175° South 391 450 29,000 1,140 Climbing Chicago Center
09:34PM 40.4633 -87.6306 175° South 391 450 30,100 1,080 Climbing Chicago Center
09:35PM 40.3547 -87.6172 177° South 391 450 31,200 1,140 Climbing Chicago Center
09:35PM 40.2608 -87.6103 175° South 392 451 32,100 1,140 Climbing Indianapolis Center
09:36PM 40.1550 -87.5986 175° South 398 458 33,200 1,020 Climbing Indianapolis Center
09:37PM 40.0492 -87.5872 174° South 399 459 34,200 900 Climbing Indianapolis Center
09:38PM 39.9433 -87.5731 172° South 394 453 35,000 780 Climbing Indianapolis Center
09:39PM 39.8375 -87.5533 159° South 387 445 35,800 780 Climbing Indianapolis Center
09:40PM 39.7331 -87.5017 156° South 387 445 36,600 600 Climbing Indianapolis Center
09:41PM 39.6347 -87.4447 158° South 398 458 37,000 180 Climbing Indianapolis Center
09:42PM 39.5281 -87.3878 156° South 408 470 37,000  Level Indianapolis Center
09:43PM 39.4175 -87.3253 158° South 425 489 37,000  Level Indianapolis Center
09:44PM 39.3067 -87.2686 156° South 430 495 37,000  Level Indianapolis Center
09:45PM 39.1961 -87.2064 156° South 430 495 37,000  Level Indianapolis Center
09:46PM 39.1039 -87.1536 158° South 425 489 37,000  Level Indianapolis Center
09:47PM 38.9972 -87.0975 158° South 415 478 37,000 180 Level Indianapolis Center
09:48PM 38.8861 -87.0386 157° South 415 478 37,400 480 Climbing Indianapolis Center
09:49PM 38.7794 -86.9803 157° South 420 483 38,000 540 Climbing Indianapolis Center
09:50PM 38.6728 -86.9219 157° South 420 483 38,500 480 Climbing Indianapolis Center
09:51PM 38.5658 -86.8639 166° South 420 483 39,000 240 Climbing Indianapolis Center
09:52PM 38.4481 -86.8267 189° South 420 483 39,000  Level Indianapolis Center
09:53PM 38.3369 -86.8483 188° South 405 466 39,000  Level Indianapolis Center
09:54PM 38.2236 -86.8694 190° South 405 466 39,000  Level Indianapolis Center
09:55PM 38.1103 -86.8961 189° South 410 472 39,000  Level Indianapolis Center
09:56PM 38.0011 -86.9175 189° South 410 472 39,000  Level Indianapolis Center
09:57PM 37.8836 -86.9411 190° South 415 478 39,000  Level Indianapolis Center
10:00PM 37.6653 -86.9883 191° South 403 464 39,000  Level Memphis Center
10:01PM 37.5575 -87.0139 190° South 403 464 39,000  Level Memphis Center
10:02PM 37.4500 -87.0367 191° South 398 458 39,000  Level Memphis Center
10:03PM 37.3319 -87.0650 192° South 398 458 39,000  Level Memphis Center
10:04PM 37.2222 -87.0931 190° South 403 464 39,000  Level Memphis Center
10:05PM 37.1144 -87.1158 194° South 403 464 39,000  Level Memphis Center
10:06PM 37.0069 -87.1486 196° South 403 464 39,000  Level Memphis Center
10:07PM 36.9017 -87.1867 196° South 403 464 39,000  Level Memphis Center
10:08PM 36.7944 -87.2244 197° South 398 458 39,000  Level Memphis Center
10:09PM 36.6892 -87.2647 197° South 398 458 39,000  Level Memphis Center
10:10PM 36.5797 -87.3053 187° South 398 458 39,000  Level Memphis Center
10:11PM 36.4675 -87.3225 158° South 404 465 39,000  Level Memphis Center
10:12PM 36.3556 -87.2672 140° Southeast 416 479 39,000  Level Memphis Center
10:13PM 36.2614 -87.1706 141° Southeast 456 525 39,000  Level Memphis Center
10:14PM 36.1631 -87.0714 138° Southeast 467 537 39,000  Level Memphis Center
10:15PM 36.0706 -86.9675 140° Southeast 462 532 39,000  Level Memphis Center
10:16PM 35.9739 -86.8661 139° Southeast 457 526 39,000  Level Memphis Center
10:17PM 35.8814 -86.7678 140° Southeast 452 520 39,000  Level Memphis Center
10:18PM 35.7847 -86.6669 140° Southeast 452 520 39,000  Level Memphis Center
10:20PM 35.5594 -86.4333 139° Southeast 445 512 39,000  Level Atlanta Center
10:21PM 35.4653 -86.3311 140° Southeast 450 518 39,000  Level Atlanta Center
10:22PM 35.3669 -86.2317 140° Southeast 450 518 39,000  Level Atlanta Center
10:23PM 35.2708 -86.1325 140° Southeast 450 518 39,000  Level Atlanta Center
10:24PM 35.1764 -86.0358 140° Southeast 450 518 39,000  Level Atlanta Center
10:25PM 35.0797 -85.9372 141° Southeast 450 518 39,000  Level Atlanta Center
10:26PM 34.9811 -85.8386 140° Southeast 450 518 39,000  Level Atlanta Center
10:27PM 34.8825 -85.7378 140° Southeast 450 518 39,000  Level Atlanta Center
10:28PM 34.7856 -85.6397 140° Southeast 455 524 39,000  Level Atlanta Center
10:29PM 34.6889 -85.5394 141° Southeast 455 524 39,000  Level Atlanta Center
10:30PM 34.5897 -85.4417 140° Southeast 461 531 39,000  Level Atlanta Center
10:31PM 34.4928 -85.3417 141° Southeast 461 531 39,000  Level Atlanta Center
10:32PM 34.3978 -85.2472 140° Southeast 461 531 39,000  Level Atlanta Center
10:33PM 34.3047 -85.1528 141° Southeast 450 518 39,000  Level Atlanta Center
10:34PM 34.2094 -85.0611 140° Southeast 450 518 39,000  Level Atlanta Center
10:35PM 34.1142 -84.9647 141° Southeast 444 511 39,000  Level Atlanta Center
10:36PM 34.0169 -84.8708 141° Southeast 444 511 39,000  Level Atlanta Center
10:37PM 33.9214 -84.7772 139° Southeast 444 511 39,000  Level Atlanta Center
10:38PM 33.8261 -84.6789 141° Southeast 444 511 39,000  Level Atlanta Center
10:39PM 33.7306 -84.5858 142° Southeast 444 511 39,000  Level Atlanta Center
10:40PM 33.6369 -84.4978 141° Southeast 439 505 39,000  Level Atlanta Center
10:41PM 33.5392 -84.4028 141° Southeast 452 520 39,000  Level Atlanta Center
10:42PM 33.4453 -84.3103 141° Southeast 446 513 39,000 -420 Level Atlanta Center
10:43PM 33.3494 -84.2178 141° Southeast 438 504 38,200 -900 Descending Atlanta Center
10:44PM 33.2514 -84.1233 141° Southeast 444 511 37,300 -900 Descending Atlanta Center
10:45PM 33.1575 -84.0314 141° Southeast 444 511 36,400 -900 Descending Atlanta Center
10:46PM 33.0658 -83.9422 142° Southeast 438 504 35,500 -900 Descending Atlanta Center
10:47PM 32.9800 -83.8631 141° Southeast 430 495 34,700 -900 Descending Atlanta Center
10:48PM 32.8817 -83.7667 142° Southeast 442 509 33,800 -900 Descending Atlanta Center
10:49PM 32.7833 -83.6756 141° Southeast 448 516 32,900 -900 Descending Atlanta Center
10:50PM 32.6831 -83.5797 142° Southeast 453 521 32,000 -900 Descending Atlanta Center
10:51PM 32.5822 -83.4867 141° Southeast 458 527 31,100 -900 Descending Atlanta Center
10:52PM 32.4817 -83.3914 141° Southeast 463 533 30,200 -1,140 Descending Atlanta Center
10:53PM 32.3808 -83.2961 141° Southeast 468 539 28,900 -1,380 Descending Atlanta Center
10:54PM 32.2758 -83.1961 141° Southeast 462 532 27,500 -1,320 Descending Atlanta Center
10:55PM 32.1600 -83.0864 141° Southeast 454 522 25,900 -1,260 Descending Jacksonville Center
10:56PM 32.0706 -83.0006 142° Southeast 441 507 24,700 -1,200 Descending Jacksonville Center
10:57PM 31.9786 -82.9147 142° Southeast 430 495 23,500 -900 Descending Jacksonville Center
10:58PM 31.8889 -82.8314 142° Southeast 418 481 23,000 -300 Descending Jacksonville Center
10:59PM 31.8011 -82.7508 142° Southeast 413 475 23,000  Level Jacksonville Center
11:00PM 31.7111 -82.6678 143° Southeast 418 481 23,000 -240 Level Jacksonville Center
11:01PM 31.6169 -82.5853 143° Southeast 418 481 22,600 -1,020 Descending Jacksonville Center
11:02PM 31.5250 -82.5050 156° South 412 474 21,000 -1,740 Descending Jacksonville Center
11:03PM 31.4267 -82.4544 157° South 400 460 19,200 -1,800 Descending Jacksonville Center
11:04PM 31.3306 -82.4061 158° South 383 441 17,500 -1,800 Descending Jacksonville Center
11:05PM 31.2383 -82.3628 158° South 372 428 15,700 -1,800 Descending Jacksonville Center
11:06PM 31.1483 -82.3197 155° Southeast 361 415 13,900 -1,920 Descending Jacksonville Center
11:07PM 31.0814 -82.2836 157° South 332 382 12,500 -1,140 Descending Jacksonville Center
11:08PM 30.9978 -82.2431 140° Southeast 314 361 12,000 -540 Descending Jacksonville Center
11:09PM 30.9369 -82.1828 136° Southeast 297 342 11,500 -840 Descending Jacksonville Center
11:10PM 30.8781 -82.1156 137° Southeast 290 334 10,400 -1,200 Descending Jacksonville Center
11:11PM 30.8169 -82.0483 136° Southeast 275 316 9,000 -1,140 Descending Jacksonville Center
11:12PM 30.7622 -81.9861 137° Southeast 265 305 8,000 -960 Descending Jacksonville Center
11:13PM 30.7161 -81.9356 133° Southeast 226 260 7,100 -1,200 Descending Jacksonville Center
11:14PM 30.6739 -81.8831 185° South 218 251 5,700 -1,080 Descending Jacksonville Center
11:15PM 30.6239 -81.8883 236° Southwest 222 255 5,000 -360 Descending Jacksonville Center
11:16PM 30.5825 -81.9586 229° Southwest 238 274 5,000 -180 Level Jacksonville Center
11:17PM 30.5411 -82.0147 177° South 234 269 4,700 -720 Descending Jacksonville Center
11:18PM 30.4994 -82.0125 131° Southeast 227 261 3,800 -1,080 Descending Jacksonville Center
11:19PM 30.4572 -81.9553 93° East 220 253 2,900 -900 Descending Jacksonville Center
11:20PM 30.4547 -81.8972 88° East 211 243 2,100 -540 Descending Jacksonville Center
11:21PM 30.4564 -81.8297 88° East 186 214 1,900 -180 Descending Jacksonville Center